Time;durP1;ratioP1;P1;durP2;ratioP2;P2;SDS_P1;SDS_P2;PMS_P1;PMS_P2;Temp;Humidity;BMP_temperature;BMP_pressure;BME280_temperature;BME280_humidity;BME280_pressure;Samples;Min_cycle;Max_cycle;Signal;HPM_P1;HPM_P2
2021/05/08 00:00:19;;;;;;;8.43;6.25;;;;;;;;;;1493360;39;20027;-60
2021/05/08 00:01:21;;;;;;;8.02;5.55;;;;;;;;;;1493208;39;20405;-61
2021/05/08 00:02:22;;;;;;;9.18;5.00;;;;;;;;;;1493389;39;20028;-60
2021/05/08 00:03:23;;;;;;;6.45;5.30;;;;;;;;;;1493182;39;20063;-60
2021/05/08 00:04:24;;;;;;;7.78;5.45;;;;;;;;;;1493343;39;20019;-60
2021/05/08 00:05:26;;;;;;;7.32;4.93;;;;;;;;;;1493154;39;20120;-61
2021/05/08 00:06:26;;;;;;;9.77;5.53;;;;;;;;;;1493287;39;20028;-59
2021/05/08 00:07:28;;;;;;;8.25;5.30;;;;;;;;;;1493115;39;20387;-61
2021/05/08 00:08:29;;;;;;;8.55;5.75;;;;;;;;;;1493244;39;20291;-62
2021/05/08 00:09:30;;;;;;;7.72;5.65;;;;;;;;;;1493072;39;20040;-61
2021/05/08 00:10:32;;;;;;;7.75;5.22;;;;;;;;;;1493117;39;20028;-60
2021/05/08 00:11:33;;;;;;;8.35;5.35;;;;;;;;;;1493271;39;20044;-61
2021/05/08 00:12:34;;;;;;;9.70;5.25;;;;;;;;;;1493118;39;20036;-59
2021/05/08 00:13:36;;;;;;;7.78;5.10;;;;;;;;;;1493295;39;20032;-61
2021/05/08 00:14:36;;;;;;;6.97;4.80;;;;;;;;;;1493073;39;20303;-64
2021/05/08 00:15:38;;;;;;;7.88;5.40;;;;;;;;;;1493058;39;20023;-60
2021/05/08 00:16:39;;;;;;;7.60;5.03;;;;;;;;;;1493129;39;20387;-60
2021/05/08 00:17:40;;;;;;;8.15;5.55;;;;;;;;;;1493283;39;20062;-60
2021/05/08 00:18:41;;;;;;;6.75;5.28;;;;;;;;;;1493295;39;20031;-60
2021/05/08 00:19:42;;;;;;;8.05;5.32;;;;;;;;;;1493106;39;20042;-60
2021/05/08 00:20:43;;;;;;;8.07;5.07;;;;;;;;;;1493116;39;20035;-61
2021/05/08 00:21:45;;;;;;;9.48;5.45;;;;;;;;;;1493187;39;20027;-61
2021/05/08 00:22:45;;;;;;;8.20;4.78;;;;;;;;;;1493363;39;20032;-60
2021/05/08 00:23:47;;;;;;;10.27;5.45;;;;;;;;;;1493093;39;20033;-61
2021/05/08 00:24:48;;;;;;;8.88;5.05;;;;;;;;;;1493169;39;20392;-60
2021/05/08 00:25:50;;;;;;;9.05;4.95;;;;;;;;;;1493068;39;20028;-61
2021/05/08 00:26:55;;;;;;;8.95;5.30;;;;;;;;;;1493214;39;20036;-60
2021/05/08 00:27:56;;;;;;;9.48;5.50;;;;;;;;;;1492768;39;20027;-60
2021/05/08 00:28:58;;;;;;;8.55;5.20;;;;;;;;;;1492527;39;20303;-59
2021/05/08 00:29:59;;;;;;;8.07;5.10;;;;;;;;;;1492851;39;20035;-60
2021/05/08 00:31:00;;;;;;;8.48;5.38;;;;;;;;;;1493069;39;20376;-61
2021/05/08 00:32:02;;;;;;;7.63;5.53;;;;;;;;;;1493267;39;20039;-60
2021/05/08 00:33:04;;;;;;;9.85;5.25;;;;;;;;;;1493353;39;20034;-61
2021/05/08 00:34:06;;;;;;;7.53;5.25;;;;;;;;;;1493272;39;20104;-60
2021/05/08 00:35:08;;;;;;;9.30;5.20;;;;;;;;;;1493065;39;20020;-63
2021/05/08 00:36:09;;;;;;;6.53;4.70;;;;;;;;;;1493253;39;20027;-61
2021/05/08 00:37:10;;;;;;;8.20;5.35;;;;;;;;;;1493205;39;20028;-61
2021/05/08 00:38:11;;;;;;;8.70;5.95;;;;;;;;;;1493285;39;20038;-59
2021/05/08 00:39:12;;;;;;;7.38;4.80;;;;;;;;;;1493225;39;20024;-60
2021/05/08 00:40:14;;;;;;;7.43;4.80;;;;;;;;;;1493149;39;20380;-60
2021/05/08 00:41:16;;;;;;;7.60;5.03;;;;;;;;;;1493101;39;20031;-59
2021/05/08 00:42:17;;;;;;;10.80;5.32;;;;;;;;;;1493242;39;20078;-61
2021/05/08 00:43:18;;;;;;;8.98;4.90;;;;;;;;;;1493191;39;20036;-62
2021/05/08 00:44:19;;;;;;;8.07;5.00;;;;;;;;;;1492644;39;20354;-60
2021/05/08 00:45:20;;;;;;;7.10;4.90;;;;;;;;;;1492767;39;20039;-60
2021/05/08 00:46:22;;;;;;;6.75;5.20;;;;;;;;;;1493171;39;20028;-61
2021/05/08 00:47:24;;;;;;;9.00;5.32;;;;;;;;;;1493013;39;20024;-60
2021/05/08 00:48:27;;;;;;;10.70;5.65;;;;;;;;;;1493030;39;20390;-61
2021/05/08 00:49:30;;;;;;;9.73;5.80;;;;;;;;;;1492439;39;20391;-60
2021/05/08 00:50:32;;;;;;;9.80;5.20;;;;;;;;;;1492573;39;20032;-60
2021/05/08 00:51:34;;;;;;;8.70;5.50;;;;;;;;;;1493219;39;20035;-61
2021/05/08 00:52:36;;;;;;;9.48;5.47;;;;;;;;;;1493008;39;20123;-61
2021/05/08 00:53:37;;;;;;;7.93;5.18;;;;;;;;;;1492973;39;20373;-60
2021/05/08 00:54:38;;;;;;;7.65;5.70;;;;;;;;;;1493223;39;20032;-60
2021/05/08 00:55:39;;;;;;;9.98;5.47;;;;;;;;;;1492960;39;20024;-60
2021/05/08 00:56:42;;;;;;;7.57;5.15;;;;;;;;;;1493001;39;20404;-60
2021/05/08 00:57:43;;;;;;;8.00;5.18;;;;;;;;;;1492985;39;20027;-60
2021/05/08 00:58:44;;;;;;;10.05;5.20;;;;;;;;;;1493161;39;20020;-61
2021/05/08 00:59:46;;;;;;;8.93;5.30;;;;;;;;;;1492943;39;20044;-60
2021/05/08 01:00:48;;;;;;;6.63;4.75;;;;;;;;;;1492991;39;20391;-60
2021/05/08 01:01:50;;;;;;;6.70;4.88;;;;;;;;;;1493006;39;20028;-59
2021/05/08 01:02:50;;;;;;;6.50;4.45;;;;;;;;;;1493233;39;20047;-59
2021/05/08 01:03:52;;;;;;;7.93;4.85;;;;;;;;;;1493181;39;20283;-59
2021/05/08 01:04:53;;;;;;;8.55;4.72;;;;;;;;;;1493138;39;20031;-60
2021/05/08 01:05:55;;;;;;;9.10;5.28;;;;;;;;;;1492986;39;20389;-62
2021/05/08 01:06:56;;;;;;;7.63;4.72;;;;;;;;;;1493023;39;20040;-59
2021/05/08 01:07:57;;;;;;;8.15;5.15;;;;;;;;;;1492964;39;20035;-61
2021/05/08 01:08:59;;;;;;;8.35;5.40;;;;;;;;;;1492943;39;20472;-60
2021/05/08 01:10:00;;;;;;;7.50;5.03;;;;;;;;;;1492572;39;20032;-60
2021/05/08 01:11:01;;;;;;;9.10;5.53;;;;;;;;;;1492533;39;20034;-60
2021/05/08 01:12:04;;;;;;;8.30;5.35;;;;;;;;;;1493000;39;20489;-60
2021/05/08 01:13:05;;;;;;;7.63;5.28;;;;;;;;;;1492966;39;20034;-60
2021/05/08 01:14:07;;;;;;;5.97;4.47;;;;;;;;;;1493132;39;20036;-59
2021/05/08 01:15:11;;;;;;;9.30;4.80;;;;;;;;;;1493120;39;20028;-60
2021/05/08 01:16:12;;;;;;;7.68;5.20;;;;;;;;;;1492861;39;20032;-60
2021/05/08 01:17:13;;;;;;;7.53;4.80;;;;;;;;;;1492958;39;20090;-59
2021/05/08 01:18:15;;;;;;;7.95;5.65;;;;;;;;;;1493150;39;20035;-60
2021/05/08 01:19:17;;;;;;;9.13;5.15;;;;;;;;;;1493080;39;20028;-61
2021/05/08 01:20:19;;;;;;;7.18;5.50;;;;;;;;;;1492579;39;20104;-62
2021/05/08 01:21:21;;;;;;;7.93;5.13;;;;;;;;;;1492609;39;20074;-61
2021/05/08 01:22:22;;;;;;;7.70;4.85;;;;;;;;;;1493035;39;20168;-59
2021/05/08 01:23:23;;;;;;;9.10;5.05;;;;;;;;;;1492911;39;20086;-59
2021/05/08 01:24:25;;;;;;;7.75;5.00;;;;;;;;;;1493126;39;20024;-59
2021/05/08 01:25:27;;;;;;;6.55;4.78;;;;;;;;;;1493046;39;20046;-61
2021/05/08 01:26:29;;;;;;;7.20;5.00;;;;;;;;;;1492921;39;20339;-59
2021/05/08 01:27:29;;;;;;;8.68;4.72;;;;;;;;;;1492401;39;20082;-61
2021/05/08 01:28:31;;;;;;;8.55;5.40;;;;;;;;;;1492622;39;20097;-59
2021/05/08 01:29:31;;;;;;;7.00;4.90;;;;;;;;;;1492840;39;20043;-60
2021/05/08 01:30:35;;;;;;;8.70;5.53;;;;;;;;;;1492879;39;20028;-59
2021/05/08 01:31:36;;;;;;;8.52;5.70;;;;;;;;;;1493074;39;20032;-60
2021/05/08 01:32:37;;;;;;;9.30;5.78;;;;;;;;;;1492936;39;20373;-60
2021/05/08 01:33:38;;;;;;;8.77;5.32;;;;;;;;;;1492887;39;20105;-60
2021/05/08 01:34:39;;;;;;;9.52;5.05;;;;;;;;;;1492881;39;20388;-60
2021/05/08 01:35:40;;;;;;;5.78;4.72;;;;;;;;;;1492855;39;20040;-60
2021/05/08 01:36:42;;;;;;;7.20;4.65;;;;;;;;;;1492888;39;20032;-60
2021/05/08 01:37:45;;;;;;;6.68;4.82;;;;;;;;;;1492912;39;20028;-59
2021/05/08 01:38:46;;;;;;;6.55;4.90;;;;;;;;;;1492817;39;20032;-59
2021/05/08 01:39:47;;;;;;;9.45;5.03;;;;;;;;;;1493020;39;20095;-61
2021/05/08 01:40:58;;;;;;;7.88;5.07;;;;;;;;;;1493113;39;20031;-60
2021/05/08 01:41:59;;;;;;;8.20;5.63;;;;;;;;;;1492918;39;20391;-62
2021/05/08 01:43:00;;;;;;;10.65;5.53;;;;;;;;;;1492919;39;20064;-59
2021/05/08 01:44:01;;;;;;;7.80;4.78;;;;;;;;;;1493054;39;20035;-61
2021/05/08 01:45:14;;;;;;;6.75;4.93;;;;;;;;;;1493122;39;20032;-59
2021/05/08 01:46:15;;;;;;;7.47;4.75;;;;;;;;;;1492939;39;20483;-61
2021/05/08 01:47:16;;;;;;;7.50;4.95;;;;;;;;;;1493053;39;20117;-60
2021/05/08 01:48:17;;;;;;;8.07;5.03;;;;;;;;;;1493125;39;20055;-60
2021/05/08 01:49:18;;;;;;;7.90;5.38;;;;;;;;;;1493008;39;20291;-60
2021/05/08 01:50:21;;;;;;;9.20;5.47;;;;;;;;;;1492839;39;20108;-60
2021/05/08 01:51:22;;;;;;;6.95;4.85;;;;;;;;;;1492856;39;20032;-60
2021/05/08 01:52:24;;;;;;;9.48;5.40;;;;;;;;;;1493029;39;20023;-60
2021/05/08 01:53:25;;;;;;;7.32;5.00;;;;;;;;;;1492862;39;20469;-60
2021/05/08 01:54:27;;;;;;;7.65;5.28;;;;;;;;;;1492903;39;20105;-60
2021/05/08 01:55:29;;;;;;;8.93;5.68;;;;;;;;;;1492341;39;20032;-61
2021/05/08 01:56:30;;;;;;;7.93;5.28;;;;;;;;;;1492451;39;20039;-60
2021/05/08 01:57:32;;;;;;;8.23;5.28;;;;;;;;;;1492891;39;20116;-60
2021/05/08 01:58:33;;;;;;;6.65;4.68;;;;;;;;;;1493026;39;20034;-60
2021/05/08 01:59:35;;;;;;;6.07;4.85;;;;;;;;;;1493025;39;20046;-60
2021/05/08 02:00:38;;;;;;;7.03;4.82;;;;;;;;;;1493073;39;20035;-61
2021/05/08 02:01:39;;;;;;;9.20;5.80;;;;;;;;;;1492797;39;20384;-60
2021/05/08 02:02:40;;;;;;;7.72;5.35;;;;;;;;;;1493011;39;20028;-60
2021/05/08 02:03:42;;;;;;;7.20;5.05;;;;;;;;;;1493069;39;20035;-59
2021/05/08 02:04:43;;;;;;;7.78;5.40;;;;;;;;;;1493065;39;20028;-59
2021/05/08 02:05:46;;;;;;;6.47;4.90;;;;;;;;;;1492843;39;20064;-60
2021/05/08 02:06:51;;;;;;;10.82;5.20;;;;;;;;;;1493051;39;20068;-60
2021/05/08 02:07:53;;;;;;;9.02;5.07;;;;;;;;;;1492874;39;20028;-61
2021/05/08 02:08:54;;;;;;;7.50;4.90;;;;;;;;;;1492954;39;20127;-59
2021/05/08 02:09:56;;;;;;;7.68;5.20;;;;;;;;;;1492821;39;20096;-60
2021/05/08 02:10:56;;;;;;;8.52;5.22;;;;;;;;;;1493005;39;20032;-60
2021/05/08 02:11:58;;;;;;;9.20;5.47;;;;;;;;;;1492268;39;20280;-61
2021/05/08 02:12:59;;;;;;;10.50;5.20;;;;;;;;;;1492499;39;20036;-60
2021/05/08 02:14:01;;;;;;;8.00;5.50;;;;;;;;;;1492984;39;20111;-61
2021/05/08 02:15:02;;;;;;;7.38;5.07;;;;;;;;;;1492948;39;20024;-59
2021/05/08 02:16:05;;;;;;;8.77;5.47;;;;;;;;;;1492954;39;20035;-59
2021/05/08 02:17:06;;;;;;;8.27;6.30;;;;;;;;;;1492309;39;20404;-59
2021/05/08 02:18:08;;;;;;;7.38;5.28;;;;;;;;;;1492358;39;20060;-59
2021/05/08 02:19:09;;;;;;;7.15;4.97;;;;;;;;;;1492927;39;20024;-59
2021/05/08 02:20:12;;;;;;;5.68;4.63;;;;;;;;;;1492343;39;20346;-59
2021/05/08 02:21:13;;;;;;;7.68;5.00;;;;;;;;;;1492333;39;20499;-60
2021/05/08 02:22:15;;;;;;;8.43;5.05;;;;;;;;;;1492945;39;20116;-61
2021/05/08 02:23:18;;;;;;;7.40;5.05;;;;;;;;;;1492977;39;20024;-62
2021/05/08 02:24:19;;;;;;;7.80;5.43;;;;;;;;;;1492990;39;20036;-59
2021/05/08 02:25:20;;;;;;;7.10;5.07;;;;;;;;;;1492370;39;20291;-59
2021/05/08 02:26:21;;;;;;;7.40;5.20;;;;;;;;;;1492347;39;20027;-59
2021/05/08 02:27:22;;;;;;;6.82;5.03;;;;;;;;;;1492974;39;20031;-59
2021/05/08 02:28:24;;;;;;;7.72;4.82;;;;;;;;;;1492887;39;20034;-59
2021/05/08 02:29:25;;;;;;;8.23;5.00;;;;;;;;;;1492713;39;20400;-61
2021/05/08 02:30:27;;;;;;;8.38;4.57;;;;;;;;;;1492740;39;20111;-59
2021/05/08 02:31:28;;;;;;;8.05;5.05;;;;;;;;;;1492904;39;20027;-59
2021/05/08 02:32:30;;;;;;;8.48;5.32;;;;;;;;;;1492919;39;20096;-60
2021/05/08 02:33:30;;;;;;;16.80;5.57;;;;;;;;;;1493018;39;20028;-61
2021/05/08 02:34:32;;;;;;;6.82;4.93;;;;;;;;;;1493037;39;20257;-60
2021/05/08 02:35:34;;;;;;;9.75;5.57;;;;;;;;;;1492713;39;20077;-59
2021/05/08 02:36:35;;;;;;;7.70;5.10;;;;;;;;;;1492796;39;20040;-58
2021/05/08 02:37:36;;;;;;;9.40;5.32;;;;;;;;;;1492783;39;20019;-59
2021/05/08 02:38:39;;;;;;;8.68;4.75;;;;;;;;;;1492785;39;20043;-60
2021/05/08 02:39:39;;;;;;;8.05;5.63;;;;;;;;;;1492684;39;20414;-60
2021/05/08 02:40:41;;;;;;;8.85;5.95;;;;;;;;;;1492732;39;20038;-60
2021/05/08 02:41:42;;;;;;;11.43;6.53;;;;;;;;;;1492759;39;20072;-60
2021/05/08 02:42:43;;;;;;;9.25;6.60;;;;;;;;;;1492222;39;20124;-59
2021/05/08 02:43:44;;;;;;;8.10;5.70;;;;;;;;;;1492462;39;20027;-61
2021/05/08 02:44:45;;;;;;;9.55;5.10;;;;;;;;;;1492724;39;20032;-60
2021/05/08 02:45:46;;;;;;;7.90;5.50;;;;;;;;;;1492699;39;20086;-60
2021/05/08 02:46:47;;;;;;;7.60;5.10;;;;;;;;;;1492713;39;20036;-61
2021/05/08 02:47:50;;;;;;;8.35;5.32;;;;;;;;;;1492934;39;20027;-62
2021/05/08 02:48:51;;;;;;;8.80;5.65;;;;;;;;;;1492628;39;20063;-60
2021/05/08 02:49:54;;;;;;;7.57;4.95;;;;;;;;;;1492658;39;20376;-59
2021/05/08 02:50:55;;;;;;;7.40;4.95;;;;;;;;;;1493067;39;20032;-61
2021/05/08 02:51:56;;;;;;;7.72;5.40;;;;;;;;;;1493315;39;20123;-60
2021/05/08 02:52:57;;;;;;;8.25;5.53;;;;;;;;;;1493404;39;20131;-60
2021/05/08 02:53:59;;;;;;;8.27;5.15;;;;;;;;;;1493287;39;20377;-60
2021/05/08 02:55:00;;;;;;;8.57;4.80;;;;;;;;;;1493280;39;20346;-60
2021/05/08 02:56:01;;;;;;;6.45;4.80;;;;;;;;;;1493275;39;20035;-61
2021/05/08 02:57:02;;;;;;;6.65;4.80;;;;;;;;;;1493521;39;20060;-59
2021/05/08 02:58:03;;;;;;;8.35;5.00;;;;;;;;;;1493295;39;20039;-61
2021/05/08 02:59:04;;;;;;;7.15;5.03;;;;;;;;;;1493478;39;20035;-59
2021/05/08 03:00:08;;;;;;;7.63;5.30;;;;;;;;;;1493476;39;20028;-59
2021/05/08 03:01:09;;;;;;;8.40;5.30;;;;;;;;;;1493355;39;20032;-59
2021/05/08 03:02:10;;;;;;;7.28;4.80;;;;;;;;;;1493346;39;20031;-60
2021/05/08 03:03:11;;;;;;;8.85;5.03;;;;;;;;;;1493482;39;20035;-60
2021/05/08 03:04:12;;;;;;;8.75;5.35;;;;;;;;;;1493283;39;20028;-60
2021/05/08 03:05:14;;;;;;;6.82;4.78;;;;;;;;;;1493556;39;20028;-60
2021/05/08 03:06:15;;;;;;;8.38;5.15;;;;;;;;;;1493438;39;20105;-59
2021/05/08 03:07:16;;;;;;;11.27;4.97;;;;;;;;;;1493462;39;20391;-61
2021/05/08 03:08:17;;;;;;;7.35;5.43;;;;;;;;;;1493434;39;20055;-61
2021/05/08 03:09:19;;;;;;;6.40;4.65;;;;;;;;;;1493242;39;20051;-59
2021/05/08 03:10:20;;;;;;;7.57;4.78;;;;;;;;;;1493410;39;20032;-59
2021/05/08 03:11:21;;;;;;;8.07;4.88;;;;;;;;;;1493457;39;20028;-58
2021/05/08 03:12:22;;;;;;;7.75;5.35;;;;;;;;;;1493273;39;20028;-61
2021/05/08 03:13:24;;;;;;;7.45;4.75;;;;;;;;;;1493499;39;20035;-59
2021/05/08 03:14:25;;;;;;;7.32;4.43;;;;;;;;;;1493582;39;20064;-62
2021/05/08 03:15:27;;;;;;;8.80;5.15;;;;;;;;;;1493287;39;20032;-60
2021/05/08 03:16:29;;;;;;;6.93;4.93;;;;;;;;;;1492860;39;20023;-60
2021/05/08 03:17:30;;;;;;;7.65;4.60;;;;;;;;;;1488647;39;20432;-63
2021/05/08 03:18:32;;;;;;;6.93;4.60;;;;;;;;;;1492804;39;20077;-62
2021/05/08 03:19:33;;;;;;;6.95;5.05;;;;;;;;;;1493400;39;20036;-60
2021/05/08 03:20:34;;;;;;;6.82;4.53;;;;;;;;;;1493404;39;20031;-62
2021/05/08 03:21:35;;;;;;;8.93;5.28;;;;;;;;;;1493467;39;20039;-60
2021/05/08 03:22:36;;;;;;;8.02;4.90;;;;;;;;;;1493199;39;20027;-61
2021/05/08 03:23:38;;;;;;;7.53;5.30;;;;;;;;;;1493221;39;20024;-60
2021/05/08 03:24:39;;;;;;;7.63;4.72;;;;;;;;;;1493425;39;20024;-59
2021/05/08 03:25:40;;;;;;;6.97;4.72;;;;;;;;;;1493280;39;20303;-64
2021/05/08 03:26:42;;;;;;;7.15;5.18;;;;;;;;;;1493417;39;20031;-59
2021/05/08 03:27:43;;;;;;;5.97;4.55;;;;;;;;;;1493463;39;20034;-62
2021/05/08 03:28:44;;;;;;;7.25;5.10;;;;;;;;;;1493426;39;20032;-61
2021/05/08 03:29:46;;;;;;;7.47;4.60;;;;;;;;;;1493369;39;20032;-61
2021/05/08 03:30:47;;;;;;;7.53;5.10;;;;;;;;;;1493262;39;20120;-60
2021/05/08 03:31:48;;;;;;;6.35;4.45;;;;;;;;;;1493324;39;20054;-59
2021/05/08 03:32:49;;;;;;;6.93;4.70;;;;;;;;;;1493383;39;20024;-59
2021/05/08 03:33:50;;;;;;;7.20;4.40;;;;;;;;;;1493249;39;20382;-59
2021/05/08 03:34:51;;;;;;;6.72;4.85;;;;;;;;;;1493459;39;20027;-59
2021/05/08 03:35:52;;;;;;;8.20;5.05;;;;;;;;;;1493173;39;20417;-59
2021/05/08 03:36:54;;;;;;;8.48;4.60;;;;;;;;;;1493243;39;20054;-58
2021/05/08 03:37:55;;;;;;;7.57;4.18;;;;;;;;;;1493268;39;20383;-59
2021/05/08 03:38:56;;;;;;;7.47;4.72;;;;;;;;;;1492715;39;20027;-59
2021/05/08 03:39:58;;;;;;;6.50;4.68;;;;;;;;;;1492712;39;20429;-61
2021/05/08 03:40:59;;;;;;;7.15;5.20;;;;;;;;;;1493204;39;20028;-61
2021/05/08 03:42:00;;;;;;;8.20;4.78;;;;;;;;;;1493411;39;20028;-59
2021/05/08 03:43:01;;;;;;;7.10;4.40;;;;;;;;;;1493377;39;20024;-61
2021/05/08 03:44:02;;;;;;;8.30;4.57;;;;;;;;;;1493163;39;20035;-60
2021/05/08 03:45:05;;;;;;;7.75;4.60;;;;;;;;;;1493449;39;20028;-60
2021/05/08 03:46:05;;;;;;;6.13;4.28;;;;;;;;;;1493290;39;20279;-60
2021/05/08 03:47:09;;;;;;;6.38;4.50;;;;;;;;;;1493338;39;20039;-62
2021/05/08 03:48:10;;;;;;;6.82;4.43;;;;;;;;;;1493412;39;20024;-60
2021/05/08 03:49:11;;;;;;;6.88;4.35;;;;;;;;;;1493155;39;20307;-61
2021/05/08 03:50:12;;;;;;;7.45;4.80;;;;;;;;;;1493340;39;20023;-60
2021/05/08 03:51:13;;;;;;;6.05;4.30;;;;;;;;;;1493136;39;20050;-60
2021/05/08 03:52:14;;;;;;;6.32;4.80;;;;;;;;;;1493202;39;20027;-60
2021/05/08 03:53:16;;;;;;;6.68;4.20;;;;;;;;;;1493360;39;20035;-60
2021/05/08 03:54:17;;;;;;;5.80;4.40;;;;;;;;;;1493165;39;20031;-59
2021/05/08 03:55:20;;;;;;;7.78;4.80;;;;;;;;;;1493145;39;20086;-59
2021/05/08 03:56:21;;;;;;;7.72;4.75;;;;;;;;;;1493260;39;20035;-59
2021/05/08 03:57:22;;;;;;;6.68;4.60;;;;;;;;;;1493262;39;20052;-59
2021/05/08 03:58:24;;;;;;;5.85;4.13;;;;;;;;;;1493388;39;20044;-61
2021/05/08 03:59:26;;;;;;;6.75;4.70;;;;;;;;;;1493326;39;20032;-61
2021/05/08 04:00:27;;;;;;;6.75;4.72;;;;;;;;;;1493363;39;20035;-59
2021/05/08 04:01:28;;;;;;;6.03;4.15;;;;;;;;;;1493357;39;20306;-59
2021/05/08 04:02:29;;;;;;;6.05;4.32;;;;;;;;;;1492733;39;20028;-59
2021/05/08 04:03:30;;;;;;;7.15;4.45;;;;;;;;;;1492630;39;20028;-59
2021/05/08 04:04:31;;;;;;;6.28;4.20;;;;;;;;;;1493148;39;20027;-60
2021/05/08 04:05:32;;;;;;;7.45;4.70;;;;;;;;;;1493199;39;20035;-59
2021/05/08 04:06:33;;;;;;;5.88;4.32;;;;;;;;;;1493354;39;20113;-59
2021/05/08 04:07:34;;;;;;;6.45;4.47;;;;;;;;;;1493196;39;20031;-59
2021/05/08 04:08:35;;;;;;;7.07;4.65;;;;;;;;;;1493218;39;20051;-59
2021/05/08 04:09:36;;;;;;;7.13;4.50;;;;;;;;;;1493081;39;20032;-59
2021/05/08 04:10:38;;;;;;;6.65;4.65;;;;;;;;;;1493339;39;20044;-59
2021/05/08 04:11:39;;;;;;;5.68;4.30;;;;;;;;;;1493125;39;20031;-60
2021/05/08 04:12:40;;;;;;;6.93;4.43;;;;;;;;;;1493188;39;20028;-62
2021/05/08 04:13:42;;;;;;;5.90;4.20;;;;;;;;;;1493334;39;20055;-61
2021/05/08 04:14:42;;;;;;;6.03;4.18;;;;;;;;;;1493217;39;20388;-60
2021/05/08 04:15:44;;;;;;;5.55;4.10;;;;;;;;;;1493262;39;20023;-59
2021/05/08 04:16:46;;;;;;;7.00;3.95;;;;;;;;;;1493333;39;20049;-59
2021/05/08 04:17:47;;;;;;;6.03;4.30;;;;;;;;;;1493117;39;20290;-61
2021/05/08 04:18:48;;;;;;;7.82;4.45;;;;;;;;;;1493196;39;20077;-59
2021/05/08 04:19:49;;;;;;;7.95;4.18;;;;;;;;;;1493035;39;20040;-61
2021/05/08 04:20:50;;;;;;;7.22;4.53;;;;;;;;;;1493263;39;20032;-61
2021/05/08 04:21:51;;;;;;;7.30;4.00;;;;;;;;;;1493204;39;20313;-59
2021/05/08 04:22:52;;;;;;;5.65;3.70;;;;;;;;;;1493244;39;20039;-62
2021/05/08 04:23:54;;;;;;;6.57;3.92;;;;;;;;;;1493352;39;20028;-60
2021/05/08 04:24:55;;;;;;;5.63;4.13;;;;;;;;;;1493290;39;20032;-59
2021/05/08 04:25:58;;;;;;;4.75;3.75;;;;;;;;;;1493267;39;20068;-59
2021/05/08 04:26:59;;;;;;;5.57;3.72;;;;;;;;;;1493261;39;20027;-59
2021/05/08 04:28:00;;;;;;;6.00;4.03;;;;;;;;;;1493609;39;20112;-57
2021/05/08 04:29:01;;;;;;;5.85;3.83;;;;;;;;;;1492993;39;20024;-57
2021/05/08 04:30:02;;;;;;;5.18;3.72;;;;;;;;;;1493135;39;20032;-56
2021/05/08 04:31:03;;;;;;;5.20;4.18;;;;;;;;;;1493246;39;20117;-56
2021/05/08 04:32:05;;;;;;;5.55;4.05;;;;;;;;;;1493130;39;20361;-56
2021/05/08 04:33:06;;;;;;;5.78;4.05;;;;;;;;;;1493236;39;20044;-57
2021/05/08 04:34:07;;;;;;;5.75;4.10;;;;;;;;;;1493278;39;20032;-57
2021/05/08 04:35:09;;;;;;;6.25;4.18;;;;;;;;;;1493159;39;20365;-57
2021/05/08 04:36:10;;;;;;;6.13;3.60;;;;;;;;;;1492670;39;20032;-57
2021/05/08 04:37:11;;;;;;;5.70;3.80;;;;;;;;;;1492578;39;20027;-56
2021/05/08 04:38:12;;;;;;;6.03;3.45;;;;;;;;;;1492971;39;20024;-58
2021/05/08 04:39:13;;;;;;;6.47;3.78;;;;;;;;;;1493026;39;20410;-57
2021/05/08 04:40:15;;;;;;;7.38;3.33;;;;;;;;;;1493092;39;20031;-57
2021/05/08 04:41:16;;;;;;;7.05;4.28;;;;;;;;;;1493066;39;20280;-57
2021/05/08 04:42:18;;;;;;;5.65;3.58;;;;;;;;;;1493273;39;20096;-58
2021/05/08 04:43:18;;;;;;;6.18;3.80;;;;;;;;;;1493217;39;20040;-57
2021/05/08 04:44:20;;;;;;;5.22;3.60;;;;;;;;;;1493041;39;20059;-57
2021/05/08 04:45:25;;;;;;;6.43;4.40;;;;;;;;;;1493306;39;20031;-57
2021/05/08 04:46:26;;;;;;;6.00;4.03;;;;;;;;;;1493080;39;20023;-55
2021/05/08 04:47:27;;;;;;;6.55;4.03;;;;;;;;;;1493082;39;20396;-57
2021/05/08 04:48:32;;;;;;;5.93;3.60;;;;;;;;;;1493178;39;20043;-57
2021/05/08 04:49:33;;;;;;;5.57;4.00;;;;;;;;;;1493019;39;20399;-57
2021/05/08 04:50:34;;;;;;;5.63;3.72;;;;;;;;;;1493256;39;20028;-57
2021/05/08 04:51:35;;;;;;;5.00;3.53;;;;;;;;;;1493229;39;20028;-57
2021/05/08 04:52:36;;;;;;;4.97;3.47;;;;;;;;;;1493039;39;20331;-57
2021/05/08 04:53:37;;;;;;;5.72;3.97;;;;;;;;;;1493185;39;20027;-57
2021/05/08 04:54:38;;;;;;;7.47;4.18;;;;;;;;;;1493172;39;20028;-57
2021/05/08 04:55:39;;;;;;;5.15;3.85;;;;;;;;;;1493007;39;20362;-57
2021/05/08 04:56:41;;;;;;;4.65;3.40;;;;;;;;;;1493145;39;20036;-57
2021/05/08 04:57:43;;;;;;;5.68;4.15;;;;;;;;;;1493130;39;20040;-56
2021/05/08 04:58:44;;;;;;;7.78;3.42;;;;;;;;;;1493244;39;20043;-56
2021/05/08 04:59:45;;;;;;;5.93;3.90;;;;;;;;;;1492979;39;20038;-59
2021/05/08 05:00:46;;;;;;;5.88;3.92;;;;;;;;;;1493123;39;20112;-57
2021/05/08 05:01:47;;;;;;;5.80;3.25;;;;;;;;;;1493017;39;20141;-57
2021/05/08 05:02:48;;;;;;;5.38;3.65;;;;;;;;;;1493155;39;20028;-57
2021/05/08 05:03:49;;;;;;;5.30;3.25;;;;;;;;;;1493205;39;20031;-57
2021/05/08 05:04:50;;;;;;;6.43;3.72;;;;;;;;;;1492994;39;20039;-57
2021/05/08 05:05:51;;;;;;;3.78;3.15;;;;;;;;;;1493199;39;20031;-57
2021/05/08 05:06:52;;;;;;;5.95;4.43;;;;;;;;;;1493001;39;20407;-57
2021/05/08 05:07:54;;;;;;;7.15;3.90;;;;;;;;;;1493061;39;20031;-57
2021/05/08 05:08:55;;;;;;;6.03;3.60;;;;;;;;;;1492979;39;20113;-57
2021/05/08 05:09:57;;;;;;;5.07;3.60;;;;;;;;;;1493165;39;20028;-57
2021/05/08 05:10:58;;;;;;;4.13;3.47;;;;;;;;;;1493004;39;20028;-57
2021/05/08 05:12:00;;;;;;;4.20;3.10;;;;;;;;;;1493185;39;20039;-57
2021/05/08 05:13:01;;;;;;;4.35;3.20;;;;;;;;;;1493184;39;20104;-57
2021/05/08 05:14:03;;;;;;;5.60;3.80;;;;;;;;;;1492656;39;20035;-57
2021/05/08 05:15:06;;;;;;;10.85;3.53;;;;;;;;;;1493001;39;20403;-57
2021/05/08 05:16:09;;;;;;;4.30;3.28;;;;;;;;;;1493102;39;20035;-57
2021/05/08 05:17:10;;;;;;;4.70;3.50;;;;;;;;;;1492941;39;20039;-57
2021/05/08 05:18:11;;;;;;;5.47;3.53;;;;;;;;;;1493150;39;20035;-57
2021/05/08 05:19:13;;;;;;;7.05;3.72;;;;;;;;;;1492428;39;20074;-57
2021/05/08 05:20:15;;;;;;;5.10;3.35;;;;;;;;;;1492482;39;20043;-57
2021/05/08 05:21:16;;;;;;;5.47;3.70;;;;;;;;;;1492957;39;20032;-57
2021/05/08 05:22:17;;;;;;;5.75;3.80;;;;;;;;;;1492500;39;20421;-57
2021/05/08 05:23:18;;;;;;;4.97;3.72;;;;;;;;;;1492464;39;20028;-57
2021/05/08 05:24:19;;;;;;;5.20;3.40;;;;;;;;;;1492476;39;20502;-57
2021/05/08 05:25:21;;;;;;;4.78;3.30;;;;;;;;;;1492750;39;20028;-60
2021/05/08 05:26:22;;;;;;;6.15;3.80;;;;;;;;;;1492961;39;20028;-57
2021/05/08 05:27:24;;;;;;;5.38;3.50;;;;;;;;;;1493163;39;20027;-57
2021/05/08 05:28:26;;;;;;;5.38;3.78;;;;;;;;;;1492421;39;20036;-57
2021/05/08 05:29:27;;;;;;;6.32;4.05;;;;;;;;;;1492514;39;20049;-57
2021/05/08 05:30:29;;;;;;;5.32;3.97;;;;;;;;;;1492494;39;20036;-57
2021/05/08 05:31:30;;;;;;;5.40;3.60;;;;;;;;;;1492502;39;20039;-57
2021/05/08 05:32:31;;;;;;;5.82;3.72;;;;;;;;;;1493131;39;20039;-57
2021/05/08 05:33:32;;;;;;;5.28;3.90;;;;;;;;;;1493093;39;20032;-57
2021/05/08 05:34:33;;;;;;;4.65;3.63;;;;;;;;;;1492952;39;20036;-57
2021/05/08 05:35:34;;;;;;;5.22;3.92;;;;;;;;;;1492902;39;20380;-57
2021/05/08 05:36:35;;;;;;;7.05;4.63;;;;;;;;;;1493087;39;20112;-57
2021/05/08 05:37:36;;;;;;;5.80;3.72;;;;;;;;;;1492906;39;20039;-57
2021/05/08 05:38:37;;;;;;;4.63;3.47;;;;;;;;;;1493100;39;20035;-57
2021/05/08 05:39:38;;;;;;;6.22;3.70;;;;;;;;;;1492864;39;20380;-57
2021/05/08 05:40:39;;;;;;;5.93;3.33;;;;;;;;;;1492475;39;20032;-57
2021/05/08 05:41:40;;;;;;;5.85;4.05;;;;;;;;;;1492654;39;20085;-57
2021/05/08 05:42:43;;;;;;;7.15;4.70;;;;;;;;;;1492960;39;20400;-57
2021/05/08 05:43:44;;;;;;;5.82;3.75;;;;;;;;;;1492923;39;20516;-57
2021/05/08 05:44:45;;;;;;;4.97;3.88;;;;;;;;;;1492963;39;20116;-57
2021/05/08 05:45:46;;;;;;;5.47;3.92;;;;;;;;;;1493135;39;20028;-57
2021/05/08 05:46:47;;;;;;;4.93;3.30;;;;;;;;;;1493103;39;20050;-57
2021/05/08 05:47:53;;;;;;;6.15;3.58;;;;;;;;;;1493091;39;20036;-57
2021/05/08 05:48:55;;;;;;;5.57;3.67;;;;;;;;;;1493010;39;20035;-59
2021/05/08 05:49:56;;;;;;;5.68;4.00;;;;;;;;;;1493069;39;20027;-57
2021/05/08 05:50:58;;;;;;;5.63;4.10;;;;;;;;;;1493103;39;20036;-57
2021/05/08 05:51:58;;;;;;;4.72;3.80;;;;;;;;;;1492890;39;20035;-57
2021/05/08 05:53:00;;;;;;;6.78;3.90;;;;;;;;;;1492894;39;20031;-57
2021/05/08 05:54:00;;;;;;;6.55;4.40;;;;;;;;;;1492435;39;20309;-57
2021/05/08 05:55:02;;;;;;;7.28;4.57;;;;;;;;;;1492642;39;20028;-57
2021/05/08 05:56:04;;;;;;;5.88;4.03;;;;;;;;;;1492868;39;20185;-57
2021/05/08 05:57:05;;;;;;;8.00;3.97;;;;;;;;;;1492960;39;20039;-57
2021/05/08 05:58:07;;;;;;;6.03;4.40;;;;;;;;;;1492992;39;20071;-57
2021/05/08 05:59:08;;;;;;;5.85;3.80;;;;;;;;;;1492982;39;20023;-57
2021/05/08 06:00:10;;;;;;;6.10;4.63;;;;;;;;;;1493096;39;20051;-57
2021/05/08 06:01:11;;;;;;;7.68;4.28;;;;;;;;;;1493024;39;20032;-57
2021/05/08 06:02:13;;;;;;;7.15;4.13;;;;;;;;;;1492977;39;20027;-57
2021/05/08 06:03:14;;;;;;;5.65;4.35;;;;;;;;;;1492847;39;20020;-57
2021/05/08 06:04:15;;;;;;;6.38;4.43;;;;;;;;;;1492996;39;20119;-57
2021/05/08 06:05:16;;;;;;;7.40;4.00;;;;;;;;;;1493130;39;20031;-58
2021/05/08 06:06:17;;;;;;;6.63;4.18;;;;;;;;;;1493079;39;20038;-56
2021/05/08 06:07:18;;;;;;;6.10;4.10;;;;;;;;;;1492536;39;20040;-57
2021/05/08 06:08:20;;;;;;;5.82;4.15;;;;;;;;;;1492359;39;20390;-57